Time;durP1;ratioP1;P1;durP2;ratioP2;P2;SDS_P1;SDS_P2;PMS_P1;PMS_P2;Temp;Humidity;BMP_temperature;BMP_pressure;BME280_temperature;BME280_humidity;BME280_pressure;Samples;Min_cycle;Max_cycle;Signal;HPM_P1;HPM_P2
2022/11/24 00:01:48;;;;;;;;;9.75;7.25;;;;;11.02;84.59;100339.53;4996452;28;45357;-69
2022/11/24 00:04:13;;;;;;;;;4.50;2.50;;;;;11.02;85.02;100336.03;4979082;28;45722;-70
2022/11/24 00:06:38;;;;;;;;;6.25;4.00;;;;;11.13;84.84;100354.81;4996712;28;45806;-68
2022/11/24 00:09:04;;;;;;;;;9.25;5.00;;;;;11.14;84.90;100366.38;4996465;28;45548;-68
2022/11/24 00:11:33;;;;;;;;;8.50;4.75;;;;;10.81;85.26;100315.16;4996887;28;45526;-69
2022/11/24 00:13:59;;;;;;;;;3.00;2.00;;;;;11.17;84.97;100371.50;4989838;28;45553;-69
2022/11/24 00:16:27;;;;;;;;;5.00;4.25;;;;;11.17;84.43;100382.19;4976568;28;46583;-69
2022/11/24 00:18:55;;;;;;;;;3.25;2.25;;;;;11.12;84.87;100369.16;4975330;28;45489;-69
2022/11/24 00:21:21;;;;;;;;;5.00;4.50;;;;;11.07;85.49;100348.09;4975617;28;45443;-68
2022/11/24 00:23:48;;;;;;;;;1.25;1.25;;;;;11.18;85.05;100343.84;4976848;28;45443;-69
2022/11/24 00:26:16;;;;;;;;;3.75;3.00;;;;;11.19;85.08;100349.06;4976794;28;46078;-67
2022/11/24 00:28:42;;;;;;;;;4.25;2.75;;;;;11.20;84.51;100341.91;4987763;28;45437;-69
2022/11/24 00:31:14;;;;;;;;;1.00;0.25;;;;;11.17;84.36;100324.28;4996235;28;45658;-68
2022/11/24 00:33:39;;;;;;;;;2.50;2.50;;;;;11.23;85.03;100318.53;4996379;28;45637;-68
2022/11/24 00:36:05;;;;;;;;;6.00;3.25;;;;;11.15;84.08;100304.88;4971392;28;45324;-67
2022/11/24 00:38:30;;;;;;;;;6.75;3.50;;;;;11.08;84.59;100274.19;4976514;28;45408;-68
2022/11/24 00:40:56;;;;;;;;;4.00;4.00;;;;;11.04;83.26;100264.69;4959024;28;45327;-67
2022/11/24 00:43:21;;;;;;;;;2.00;2.00;;;;;10.99;83.29;100267.69;4976733;28;45404;-68
2022/11/24 00:45:46;;;;;;;;;2.25;2.00;;;;;11.16;82.97;100305.72;4974928;28;47437;-68
2022/11/24 00:48:12;;;;;;;;;4.25;1.00;;;;;11.18;82.72;100295.78;4983926;28;45478;-67
2022/11/24 00:50:37;;;;;;;;;0.50;0.50;;;;;11.26;83.16;100290.78;4979891;28;45443;-68
2022/11/24 00:53:03;;;;;;;;;5.75;3.25;;;;;11.26;82.89;100312.13;4976381;28;45301;-67
2022/11/24 00:55:28;;;;;;;;;1.50;1.00;;;;;11.13;82.16;100317.44;4976254;28;46628;-68
2022/11/24 00:57:53;;;;;;;;;0.75;0.75;;;;;11.28;81.95;100326.22;4978559;28;45462;-68
2022/11/24 01:00:19;;;;;;;;;3.00;1.50;;;;;11.24;81.35;100327.38;4984468;28;45436;-67
2022/11/24 01:02:44;;;;;;;;;1.00;1.00;;;;;10.76;81.97;100261.25;4976004;28;45356;-68
2022/11/24 01:05:10;;;;;;;;;0.75;0.75;;;;;11.17;80.70;100350.97;4980600;28;46550;-67
2022/11/24 01:07:35;;;;;;;;;1.00;1.00;;;;;11.17;80.36;100345.66;4995216;28;45573;-68
2022/11/24 01:10:01;;;;;;;;;1.00;1.00;;;;;11.00;79.95;100328.13;4995375;28;45545;-68
2022/11/24 01:12:27;;;;;;;;;5.25;1.75;;;;;11.16;79.71;100343.97;4992090;28;45571;-69
2022/11/24 01:14:52;;;;;;;;;0.50;0.50;;;;;11.15;78.72;100355.59;4975573;28;46392;-69
2022/11/24 01:17:18;;;;;;;;;1.00;1.00;;;;;11.10;77.94;100353.22;4975861;28;45396;-69
2022/11/24 01:19:46;;;;;;;;;2.00;0.75;;;;;11.13;77.78;100376.19;4976101;28;45918;-69
2022/11/24 01:22:11;;;;;;;;;0.00;0.00;;;;;11.02;77.42;100366.22;4959466;28;45595;-69
2022/11/24 01:24:37;;;;;;;;;2.00;2.00;;;;;11.00;76.62;100376.16;4994777;28;46694;-69
2022/11/24 01:27:02;;;;;;;;;0.00;0.00;;;;;11.06;76.58;100390.91;4992687;28;45674;-70
2022/11/24 01:29:28;;;;;;;;;0.25;0.25;;;;;11.05;77.52;100383.84;4976979;28;46047;-69
2022/11/24 01:31:53;;;;;;;;;1.75;0.50;;;;;10.91;76.38;100368.78;4977117;28;45587;-69
2022/11/24 01:34:18;;;;;;;;;2.00;1.00;;;;;11.03;76.87;100397.31;4995044;28;45406;-69
2022/11/24 01:36:44;;;;;;;;;0.00;0.00;;;;;11.00;76.99;100393.97;4995428;28;45477;-69
2022/11/24 01:39:09;;;;;;;;;0.25;0.25;;;;;10.93;77.23;100393.53;4988901;28;45585;-70
2022/11/24 01:41:35;;;;;;;;;0.00;0.00;;;;;10.97;77.51;100408.38;4976604;28;45511;-69
2022/11/24 01:44:00;;;;;;;;;0.00;0.00;;;;;10.93;77.24;100412.19;4974062;28;46646;-69
2022/11/24 01:46:40;;;;;;;;;0.25;0.25;;;;;10.98;76.95;100410.09;4975523;28;45578;-70
2022/11/24 01:49:18;;;;;;;;;0.00;0.00;;;;;10.62;77.34;100363.53;4975483;28;45352;-69
2022/11/24 01:52:06;;;;;;;;;0.00;0.00;;;;;10.84;76.80;100405.69;4977862;28;45476;-70
2022/11/24 01:54:40;;;;;;;;;0.00;0.00;;;;;10.87;76.54;100433.97;4983732;28;47457;-70
2022/11/24 01:57:16;;;;;;;;;0.00;0.00;;;;;10.19;76.52;100336.94;4976274;28;45608;-69
2022/11/24 01:59:45;;;;;;;;;0.25;0.25;;;;;10.77;76.50;100445.25;4976891;28;45698;-70
2022/11/24 02:02:11;;;;;;;;;0.00;0.00;;;;;10.78;77.05;100454.09;4994332;28;45403;-70
2022/11/24 02:04:37;;;;;;;;;1.00;0.00;;;;;10.80;76.85;100464.66;4994764;28;47633;-70
2022/11/24 02:07:06;;;;;;;;;2.00;0.00;;;;;10.78;77.16;100462.09;4994688;28;45314;-70
2022/11/24 02:09:49;;;;;;;;;0.00;0.00;;;;;10.82;76.61;100468.09;4994812;28;45414;-69
2022/11/24 02:12:14;;;;;;;;;0.00;0.00;;;;;10.60;77.18;100458.81;4977049;28;45450;-69
2022/11/24 02:14:41;;;;;;;;;0.00;0.00;;;;;10.68;76.97;100475.19;4976818;28;45572;-70
2022/11/24 02:17:07;;;;;;;;;0.00;0.00;;;;;10.72;77.10;100500.72;4994558;28;45477;-69
2022/11/24 02:19:41;;;;;;;;;0.00;0.00;;;;;10.73;77.45;100490.88;4986172;28;45773;-69
2022/11/24 02:22:16;;;;;;;;;0.00;0.00;;;;;10.56;78.21;100473.31;4978373;28;45866;-70
2022/11/24 02:25:10;;;;;;;;;1.50;0.00;;;;;9.96;78.17;100373.94;4973404;28;47485;-70
2022/11/24 02:27:36;;;;;;;;;0.50;0.00;;;;;10.71;78.86;100499.00;4976955;28;45420;-69
2022/11/24 02:30:02;;;;;;;;;1.00;0.00;;;;;10.67;79.40;100496.63;4994726;28;45665;-70
2022/11/24 02:32:30;;;;;;;;;0.00;0.00;;;;;10.68;79.45;100499.19;4994606;28;45410;-69
2022/11/24 02:35:04;;;;;;;;;1.00;0.00;;;;;10.72;80.05;100511.38;4994530;28;45560;-69
2022/11/24 02:37:29;;;;;;;;;0.00;0.00;;;;;10.76;80.29;100514.72;4994384;28;45475;-68
2022/11/24 02:39:55;;;;;;;;;2.00;1.00;;;;;10.54;80.54;100488.53;4960567;28;45342;-69
2022/11/24 02:42:20;;;;;;;;;3.00;1.00;;;;;10.63;82.02;100511.97;4994189;28;45641;-70
2022/11/24 02:44:50;;;;;;;;;0.00;0.00;;;;;10.63;82.02;100532.44;4994372;28;46934;-69
2022/11/24 02:47:15;;;;;;;;;0.00;0.00;;;;;10.58;83.24;100538.06;4994241;28;45421;-69
2022/11/24 02:49:41;;;;;;;;;1.00;0.00;;;;;10.57;83.47;100539.03;4994422;28;45442;-69
2022/11/24 02:52:07;;;;;;;;;0.00;0.00;;;;;10.58;83.54;100543.41;4994263;28;45387;-70
2022/11/24 02:54:32;;;;;;;;;0.00;0.00;;;;;10.55;84.11;100547.13;4994276;28;45392;-70
2022/11/24 02:56:58;;;;;;;;;0.00;0.00;;;;;10.61;84.65;100548.56;4993803;28;45656;-70
2022/11/24 02:59:23;;;;;;;;;1.00;0.50;;;;;10.45;84.35;100529.97;4994106;28;45454;-69
2022/11/24 03:01:49;;;;;;;;;0.00;0.00;;;;;10.43;84.93;100542.53;4993966;28;45555;-70
2022/11/24 03:04:14;;;;;;;;;0.00;0.00;;;;;10.28;85.70;100528.31;4993978;28;45663;-69
2022/11/24 03:06:40;;;;;;;;;3.25;1.00;;;;;10.49;85.82;100568.00;4993866;28;45439;-70
2022/11/24 03:09:05;;;;;;;;;0.25;0.00;;;;;10.34;86.30;100567.06;4976413;28;45387;-70
2022/11/24 03:11:31;;;;;;;;;0.75;0.00;;;;;10.29;86.26;100558.53;4994059;28;45655;-70
2022/11/24 03:13:56;;;;;;;;;2.00;1.00;;;;;10.40;86.53;100580.91;4993715;28;45744;-70
2022/11/24 03:16:22;;;;;;;;;0.00;0.00;;;;;10.52;86.00;100610.47;4997127;28;45700;-70
2022/11/24 03:18:50;;;;;;;;;0.00;0.00;;;;;10.51;86.55;100614.09;4997654;28;45757;-70
2022/11/24 03:21:15;;;;;;;;;2.75;1.00;;;;;10.43;86.72;100623.41;4997222;28;45423;-70
2022/11/24 03:23:40;;;;;;;;;0.00;0.00;;;;;10.35;87.13;100603.50;4997189;28;46619;-70
2022/11/24 03:26:07;;;;;;;;;2.25;0.00;;;;;9.86;86.98;100516.66;4997270;28;45585;-70
2022/11/24 03:28:33;;;;;;;;;0.00;0.00;;;;;10.29;86.64;100585.19;4979839;28;45627;-70
2022/11/24 03:30:58;;;;;;;;;1.00;1.00;;;;;10.31;87.11;100602.81;4997044;28;45438;-70
2022/11/24 03:33:24;;;;;;;;;1.25;0.00;;;;;10.41;86.95;100614.63;4997278;28;45631;-70
2022/11/24 03:35:49;;;;;;;;;0.00;0.00;;;;;10.47;86.65;100615.22;4997330;28;45402;-69
2022/11/24 03:38:14;;;;;;;;;1.00;1.00;;;;;10.36;86.40;100600.72;4997112;28;45411;-70
2022/11/24 03:40:40;;;;;;;;;0.75;0.75;;;;;10.41;86.45;100609.31;4997115;28;45427;-70
2022/11/24 03:43:05;;;;;;;;;1.75;0.00;;;;;10.43;86.37;100623.41;4997047;28;45587;-70
2022/11/24 03:45:30;;;;;;;;;0.00;0.00;;;;;10.24;86.57;100585.44;4997139;28;45714;-70
2022/11/24 03:47:56;;;;;;;;;2.50;1.00;;;;;10.33;86.59;100608.88;4997092;28;45364;-70
2022/11/24 03:50:21;;;;;;;;;0.00;0.00;;;;;10.33;86.92;100606.22;4962974;28;45405;-70
2022/11/24 03:52:47;;;;;;;;;0.00;0.00;;;;;9.93;86.50;100541.97;4996702;28;46509;-70
2022/11/24 03:55:12;;;;;;;;;0.75;0.75;;;;;10.20;86.77;100605.25;4996663;28;45414;-70
2022/11/24 03:57:37;;;;;;;;;1.25;0.25;;;;;10.36;86.54;100638.06;4963065;28;45438;-70
2022/11/24 04:00:05;;;;;;;;;1.00;0.00;;;;;10.05;86.33;100594.53;4997183;28;45393;-68
2022/11/24 04:02:30;;;;;;;;;1.75;1.00;;;;;10.40;86.49;100638.75;4996653;28;45472;-70
2022/11/24 04:04:55;;;;;;;;;1.00;0.00;;;;;10.26;86.37;100626.22;4978789;28;45497;-71
2022/11/24 04:07:21;;;;;;;;;3.50;1.00;;;;;10.31;86.66;100645.47;4979184;28;45550;-71
2022/11/24 04:09:46;;;;;;;;;0.00;0.00;;;;;10.38;86.18;100654.00;4996632;28;45438;-69
2022/11/24 04:14:55;;;;;;;;;0.75;0.25;;;;;10.17;86.26;100629.44;4996718;28;45462;-70
2022/11/24 04:17:21;;;;;;;;;0.75;0.00;;;;;9.98;86.63;100603.84;4996750;28;45404;-69
2022/11/24 04:19:46;;;;;;;;;0.00;0.00;;;;;10.16;86.43;100627.69;4996488;28;45676;-70
2022/11/24 04:22:11;;;;;;;;;0.25;0.25;;;;;10.18;86.78;100633.81;4996509;28;45578;-71
2022/11/24 04:24:36;;;;;;;;;1.50;0.25;;;;;10.26;86.84;100666.19;4996174;28;45414;-70
2022/11/24 04:27:02;;;;;;;;;0.00;0.00;;;;;10.21;86.92;100655.78;4978158;28;45416;-70
2022/11/24 04:29:27;;;;;;;;;3.00;0.00;;;;;10.20;87.47;100658.56;4978521;28;45521;-69
2022/11/24 04:31:53;;;;;;;;;0.75;0.00;;;;;10.21;87.14;100653.13;4978548;28;46220;-69
2022/11/24 04:34:18;;;;;;;;;1.25;1.25;;;;;10.21;87.36;100668.28;4996107;28;45474;-69
2022/11/24 04:36:43;;;;;;;;;0.75;0.00;;;;;10.12;87.69;100653.66;4996532;28;46018;-71
2022/11/24 04:39:09;;;;;;;;;1.00;0.00;;;;;9.95;87.61;100622.69;4996266;28;45575;-69
2022/11/24 04:41:34;;;;;;;;;1.25;0.00;;;;;10.10;87.55;100659.09;4996070;28;45465;-69
2022/11/24 04:43:59;;;;;;;;;2.25;1.00;;;;;10.12;87.54;100668.81;4996246;28;45471;-71
2022/11/24 04:46:25;;;;;;;;;3.00;0.00;;;;;10.12;87.90;100688.31;4996119;28;45387;-69
2022/11/24 04:48:50;;;;;;;;;1.50;0.25;;;;;10.12;87.54;100688.31;4996483;28;45577;-69
2022/11/24 04:51:15;;;;;;;;;0.00;0.00;;;;;10.07;88.01;100669.94;4995984;28;45622;-69
2022/11/24 04:53:41;;;;;;;;;1.50;1.00;;;;;9.94;88.22;100680.44;4995792;28;45559;-69
2022/11/24 04:56:06;;;;;;;;;2.25;0.00;;;;;9.84;88.75;100654.41;4996006;28;45726;-70
2022/11/24 04:58:32;;;;;;;;;1.50;0.00;;;;;10.01;88.19;100686.28;4996134;28;45483;-70
2022/11/24 05:00:57;;;;;;;;;1.00;1.00;;;;;10.00;88.33;100689.91;4995677;28;45627;-70
2022/11/24 05:03:23;;;;;;;;;0.00;0.00;;;;;9.85;87.75;100653.47;4995972;28;45457;-70
2022/11/24 05:05:48;;;;;;;;;5.50;1.25;;;;;10.05;87.57;100703.81;4995804;28;45916;-70
2022/11/24 05:08:13;;;;;;;;;1.00;0.00;;;;;9.81;88.09;100654.59;4995791;28;45493;-70
2022/11/24 05:10:39;;;;;;;;;0.25;0.25;;;;;9.97;87.54;100668.75;4995856;28;45458;-70
2022/11/24 05:13:09;;;;;;;;;2.00;0.25;;;;;10.11;87.22;100691.97;4995891;28;45410;-69
2022/11/24 05:15:39;;;;;;;;;2.75;1.50;;;;;10.09;86.88;100697.38;4978164;28;45392;-69
2022/11/24 05:18:11;;;;;;;;;1.00;1.00;;;;;9.97;87.25;100678.56;4995593;28;45710;-69
2022/11/24 05:20:36;;;;;;;;;0.25;0.25;;;;;10.08;86.90;100695.66;4994904;28;46573;-69
2022/11/24 05:23:06;;;;;;;;;1.25;1.25;;;;;10.04;87.00;100696.78;4995290;28;45399;-69
2022/11/24 05:25:35;;;;;;;;;0.00;0.00;;;;;9.92;87.22;100682.34;4995725;28;45544;-69
2022/11/24 05:28:02;;;;;;;;;2.50;1.00;;;;;10.09;86.94;100705.38;4995460;28;45557;-68
2022/11/24 05:30:28;;;;;;;;;0.25;0.00;;;;;10.12;86.83;100712.31;4976067;28;45644;-69
2022/11/24 05:32:54;;;;;;;;;0.00;0.00;;;;;10.02;86.95;100697.81;4995124;28;45291;-68
2022/11/24 05:35:20;;;;;;;;;1.00;1.00;;;;;10.08;87.13;100708.09;4995419;28;45548;-69
2022/11/24 05:37:46;;;;;;;;;4.00;4.00;;;;;10.08;87.35;100713.44;4994583;28;45375;-70
2022/11/24 05:40:12;;;;;;;;;4.75;2.25;;;;;10.09;87.44;100709.81;4994866;28;46079;-69
2022/11/24 05:42:40;;;;;;;;;4.00;3.00;;;;;10.10;87.74;100712.41;4994343;28;45497;-69
2022/11/24 05:45:12;;;;;;;;;1.25;1.25;;;;;9.94;87.39;100684.94;4995043;28;45545;-69
2022/11/24 05:47:39;;;;;;;;;2.00;2.00;;;;;10.15;87.27;100719.28;4995103;28;45570;-70
2022/11/24 05:50:04;;;;;;;;;4.00;1.50;;;;;10.05;87.50;100713.63;4993110;28;46100;-70
2022/11/24 05:52:30;;;;;;;;;1.50;1.25;;;;;10.06;87.73;100724.19;4976131;28;45644;-70
2022/11/24 05:54:55;;;;;;;;;1.25;1.25;;;;;9.43;88.17;100631.88;4995181;28;45374;-69
2022/11/24 05:57:20;;;;;;;;;0.00;0.00;;;;;9.42;87.88;100631.00;4993869;28;45400;-70
2022/11/24 05:59:46;;;;;;;;;1.25;0.25;;;;;10.14;87.79;100738.91;4994887;28;45570;-69
2022/11/24 06:02:11;;;;;;;;;1.50;0.25;;;;;10.03;87.81;100729.69;4990255;28;45373;-69
2022/11/24 06:04:36;;;;;;;;;2.50;1.25;;;;;10.06;88.01;100731.34;4993699;28;45466;-69
2022/11/24 06:07:05;;;;;;;;;1.75;0.50;;;;;10.12;87.65;100754.09;4994907;28;45526;-72
2022/11/24 06:09:30;;;;;;;;;1.75;1.00;;;;;10.08;88.09;100758.75;4994806;28;45591;-70
2022/11/24 06:11:56;;;;;;;;;3.25;1.00;;;;;9.91;88.09;100725.94;4994647;28;45519;-68
2022/11/24 06:14:21;;;;;;;;;1.75;0.00;;;;;9.90;87.90;100728.69;4994568;28;45387;-67
2022/11/24 06:16:46;;;;;;;;;2.50;2.25;;;;;10.15;88.06;100761.91;4976508;28;45501;-68
2022/11/24 06:19:12;;;;;;;;;1.50;1.00;;;;;10.03;87.87;100753.69;4994403;28;46435;-68
2022/11/24 06:21:37;;;;;;;;;1.75;1.75;;;;;10.00;87.75;100753.00;4987106;28;45792;-68
2022/11/24 06:24:03;;;;;;;;;5.00;1.00;;;;;9.95;88.25;100755.94;4974298;28;45617;-68
2022/11/24 06:26:29;;;;;;;;;8.25;3.25;;;;;10.12;87.89;100772.78;4975881;28;45734;-68
2022/11/24 06:28:54;;;;;;;;;4.00;3.00;;;;;9.87;87.86;100731.53;4990384;28;45834;-68
2022/11/24 06:31:19;;;;;;;;;3.00;2.25;;;;;9.49;88.51;100678.59;4993837;28;45391;-68
2022/11/24 06:33:45;;;;;;;;;4.00;3.00;;;;;9.92;88.57;100750.78;4992747;28;45495;-68
2022/11/24 06:36:13;;;;;;;;;2.25;2.00;;;;;10.05;88.54;100778.44;4994399;28;45359;-68
2022/11/24 06:38:38;;;;;;;;;1.25;1.25;;;;;9.71;88.81;100737.69;4993629;28;47230;-69
2022/11/24 06:41:06;;;;;;;;;4.50;3.75;;;;;9.92;89.37;100770.28;4993639;28;45433;-69
2022/11/24 06:43:33;;;;;;;;;5.25;3.00;;;;;10.02;89.23;100794.59;4994072;28;45697;-68
2022/11/24 06:45:58;;;;;;;;;8.00;2.75;;;;;10.03;89.73;100804.31;4976070;28;45524;-68
2022/11/24 06:48:24;;;;;;;;;4.00;2.75;;;;;10.01;89.19;100792.88;4993432;28;45696;-68
2022/11/24 06:50:50;;;;;;;;;5.25;2.00;;;;;9.89;89.48;100783.78;4993832;28;45380;-68
2022/11/24 06:53:16;;;;;;;;;2.50;2.50;;;;;9.96;89.53;100808.28;4994087;28;45360;-69
2022/11/24 06:55:42;;;;;;;;;2.25;1.00;;;;;9.89;90.18;100798.91;4993835;28;45377;-69
2022/11/24 06:58:07;;;;;;;;;4.00;2.75;;;;;9.94;90.05;100815.50;4993513;28;47258;-68
2022/11/24 07:00:33;;;;;;;;;1.50;1.50;;;;;9.91;90.28;100831.66;4993635;28;45401;-69
2022/11/24 07:02:59;;;;;;;;;3.75;2.50;;;;;9.92;90.46;100828.06;4993504;28;45647;-67
2022/11/24 07:05:25;;;;;;;;;2.50;1.50;;;;;9.86;90.10;100815.06;4993868;28;45436;-68
2022/11/24 07:07:50;;;;;;;;;2.00;2.00;;;;;9.89;90.70;100833.53;4993977;28;45801;-68
2022/11/24 07:10:16;;;;;;;;;4.00;3.00;;;;;9.87;91.06;100835.44;4994081;28;45371;-69
2022/11/24 07:12:41;;;;;;;;;4.75;3.50;;;;;9.89;90.52;100854.84;4992942;28;45462;-69
2022/11/24 07:15:07;;;;;;;;;1.00;1.00;;;;;9.76;91.79;100836.88;4993583;28;45355;-68
2022/11/24 07:17:37;;;;;;;;;1.00;1.00;;;;;9.86;91.55;100853.22;4993354;28;45731;-69
2022/11/24 07:20:07;;;;;;;;;2.25;1.75;;;;;9.85;91.32;100850.63;4993504;28;45389;-68
2022/11/24 07:22:33;;;;;;;;;2.50;2.50;;;;;9.93;91.17;100864.41;4993403;28;45674;-68
2022/11/24 07:24:59;;;;;;;;;3.25;3.00;;;;;9.90;91.09;100861.91;4992723;28;45358;-68
2022/11/24 07:27:26;;;;;;;;;2.25;2.00;;;;;9.66;91.30;100822.31;4993887;28;45709;-68
2022/11/24 07:29:51;;;;;;;;;2.00;2.00;;;;;9.91;90.97;100851.16;4993691;28;45347;-69
2022/11/24 07:32:17;;;;;;;;;6.00;3.75;;;;;9.90;91.38;100862.75;4993345;28;45449;-68
2022/11/24 07:34:42;;;;;;;;;4.00;3.00;;;;;9.97;91.00;100863.28;4993765;28;45514;-68
2022/11/24 07:37:07;;;;;;;;;4.50;3.25;;;;;10.01;90.98;100864.84;4993510;28;45425;-69
2022/11/24 07:39:33;;;;;;;;;6.75;4.75;;;;;9.95;91.25;100851.88;4993591;28;45663;-67
2022/11/24 07:41:59;;;;;;;;;3.25;3.25;;;;;10.08;90.96;100868.91;4993771;28;45601;-68
2022/11/24 07:44:24;;;;;;;;;2.00;2.00;;;;;10.13;90.33;100870.47;4993801;28;45482;-69
2022/11/24 07:46:50;;;;;;;;;7.50;3.00;;;;;10.07;90.50;100872.50;4993079;28;45605;-67
2022/11/24 07:49:16;;;;;;;;;3.50;3.50;;;;;10.00;90.23;100875.59;4993553;28;45398;-68
2022/11/24 07:51:42;;;;;;;;;5.25;4.00;;;;;10.16;90.35;100896.94;4993608;28;45386;-68
2022/11/24 07:54:07;;;;;;;;;2.25;2.00;;;;;10.20;90.32;100891.38;4993621;28;45506;-68
2022/11/24 07:56:32;;;;;;;;;1.75;1.75;;;;;10.22;90.52;100896.59;4975660;28;47339;-69
2022/11/24 07:58:58;;;;;;;;;2.75;1.00;;;;;10.19;90.26;100894.09;4993438;28;45687;-68
2022/11/24 08:01:23;;;;;;;;;4.00;2.00;;;;;10.26;90.25;100903.50;4994944;28;45402;-69
2022/11/24 08:03:49;;;;;;;;;3.25;2.00;;;;;9.92;90.67;100854.72;4996888;28;45395;-69
2022/11/24 08:06:15;;;;;;;;;6.75;4.25;;;;;10.30;90.69;100905.03;4996206;28;46287;-69
2022/11/24 08:08:40;;;;;;;;;1.50;1.25;;;;;10.29;90.21;100892.66;4996839;28;45416;-68
2022/11/24 08:11:08;;;;;;;;;5.75;4.75;;;;;10.42;90.47;100899.03;4978945;28;45413;-68
2022/11/24 08:13:34;;;;;;;;;7.00;2.75;;;;;10.44;90.29;100898.97;4996931;28;45460;-68
2022/11/24 08:16:04;;;;;;;;;1.25;1.25;;;;;10.53;90.39;100913.59;4996139;28;45744;-67
2022/11/24 08:18:29;;;;;;;;;4.00;2.50;;;;;10.53;90.06;100908.25;4996303;28;45426;-67
2022/11/24 08:20:57;;;;;;;;;4.00;2.25;;;;;10.67;89.03;100913.66;4978835;28;45369;-68
2022/11/24 08:23:22;;;;;;;;;4.00;2.75;;;;;10.73;88.67;100918.66;4996725;28;45400;-68
2022/11/24 08:25:47;;;;;;;;;4.50;2.00;;;;;10.72;88.62;100919.59;4978600;28;45554;-68
2022/11/24 08:28:13;;;;;;;;;3.00;3.00;;;;;10.94;88.05;100943.25;4996497;28;45487;-69
2022/11/24 08:30:38;;;;;;;;;6.25;3.00;;;;;10.94;87.91;100937.03;4996244;28;45384;-68
2022/11/24 08:33:03;;;;;;;;;2.00;1.00;;;;;11.00;87.10;100941.16;4996308;28;45523;-68
2022/11/24 08:35:29;;;;;;;;;2.75;1.00;;;;;11.03;87.29;100936.50;4978686;28;47190;-68
2022/11/24 08:37:54;;;;;;;;;3.50;3.00;;;;;10.99;86.80;100921.63;4996326;28;45467;-68
2022/11/24 08:40:20;;;;;;;;;1.50;1.25;;;;;11.16;86.88;100947.34;4995902;28;45691;-68
2022/11/24 08:42:46;;;;;;;;;1.75;1.25;;;;;11.05;86.20;100915.94;4995663;28;45551;-68
2022/11/24 08:45:11;;;;;;;;;3.75;3.00;;;;;11.17;86.34;100929.50;4995723;28;45430;-68
2022/11/24 08:47:37;;;;;;;;;1.50;1.50;;;;;11.47;86.12;100956.19;4978489;28;45433;-68
2022/11/24 08:50:04;;;;;;;;;2.00;2.00;;;;;11.51;84.64;100962.22;4996456;28;45415;-68
2022/11/24 08:52:29;;;;;;;;;2.25;2.00;;;;;11.58;84.13;100958.22;4978549;28;45454;-68
2022/11/24 08:54:55;;;;;;;;;4.75;4.00;;;;;11.63;84.72;100961.47;4978085;28;45853;-69
2022/11/24 08:57:20;;;;;;;;;1.25;1.00;;;;;11.34;84.91;100915.16;4995885;28;45395;-68
2022/11/24 08:59:46;;;;;;;;;4.25;4.00;;;;;11.51;85.36;100941.72;4995804;28;45475;-68
2022/11/24 09:02:12;;;;;;;;;3.00;1.50;;;;;12.02;83.06;100959.19;4995697;28;45502;-68
2022/11/24 09:04:38;;;;;;;;;2.50;1.75;;;;;12.10;82.06;100944.34;4978086;28;48518;-68
2022/11/24 09:07:04;;;;;;;;;2.25;2.25;;;;;11.75;82.34;100904.59;4995613;28;45400;-68
2022/11/24 09:09:29;;;;;;;;;2.25;2.25;;;;;12.03;82.59;100959.06;4978319;28;45427;-69
2022/11/24 09:11:54;;;;;;;;;2.50;2.25;;;;;11.53;81.60;100883.69;4995708;28;45611;-71
2022/11/24 09:14:20;;;;;;;;;3.75;2.00;;;;;12.00;82.51;100953.94;4977764;28;45910;-70
2022/11/24 09:16:45;;;;;;;;;3.25;2.00;;;;;11.76;82.54;100929.53;4977989;28;45583;-71
2022/11/24 09:19:10;;;;;;;;;3.25;2.00;;;;;11.92;82.62;100956.19;4994337;28;45413;-70
2022/11/24 09:21:37;;;;;;;;;2.50;1.25;;;;;12.06;82.90;100972.25;4994834;28;45332;-70
2022/11/24 09:24:04;;;;;;;;;2.25;1.25;;;;;12.18;82.28;100951.06;4977280;28;46176;-69
2022/11/24 09:26:32;;;;;;;;;6.25;4.00;;;;;12.34;81.30;100964.34;4994772;28;45343;-69
2022/11/24 09:28:59;;;;;;;;;1.00;1.00;;;;;12.38;81.73;100966.69;4995021;28;45492;-70
2022/11/24 09:31:26;;;;;;;;;3.00;2.00;;;;;12.44;81.56;100958.31;4995338;28;45498;-71
2022/11/24 09:33:53;;;;;;;;;3.75;2.50;;;;;12.59;81.15;100966.28;4995252;28;45769;-70
2022/11/24 09:36:19;;;;;;;;;2.75;2.50;;;;;12.36;80.17;100923.16;4995117;28;45403;-72
2022/11/24 09:38:45;;;;;;;;;4.25;3.25;;;;;12.53;80.50;100943.47;4995359;28;45409;-70
2022/11/24 09:41:13;;;;;;;;;3.00;3.00;;;;;12.65;79.72;100947.16;4995259;28;45657;-70
2022/11/24 09:43:44;;;;;;;;;3.00;3.00;;;;;12.41;79.90;100901.44;4994761;28;47421;-69
2022/11/24 09:46:35;;;;;;;;;5.75;4.75;;;;;12.81;79.52;100943.47;4995199;28;45389;-70
2022/11/24 09:49:04;;;;;;;;;5.50;3.25;;;;;12.67;79.40;100912.28;4977406;28;45422;-71
2022/11/24 09:51:32;;;;;;;;;0.67;0.67;;;;;12.82;79.86;100924.66;4995018;28;45442;-70
2022/11/24 09:54:08;;;;;;;;;8.25;6.50;;;;;13.05;79.13;100955.25;4977119;28;47675;-70
2022/11/24 09:56:37;;;;;;;;;5.67;2.33;;;;;13.12;78.80;100961.91;4994493;28;45375;-70
2022/11/24 09:59:06;;;;;;;;;4.00;2.50;;;;;13.17;78.70;100966.09;4994690;28;45439;-71
2022/11/24 10:01:35;;;;;;;;;2.75;1.75;;;;;13.18;77.83;100965.16;4994960;28;45490;-69
2022/11/24 10:04:02;;;;;;;;;3.25;2.00;;;;;12.98;76.87;100937.03;4994742;28;46651;-69
2022/11/24 10:06:37;;;;;;;;;2.00;2.00;;;;;13.09;77.47;100969.28;4994651;28;45400;-70
2022/11/24 10:09:12;;;;;;;;;4.75;3.00;;;;;13.25;77.53;100958.41;4994831;28;45332;-70
2022/11/24 10:11:40;;;;;;;;;3.33;2.33;;;;;13.38;76.32;100964.69;4995227;28;45398;-70
2022/11/24 10:14:25;;;;;;;;;4.00;2.50;;;;;13.51;76.02;100969.22;4995109;28;45583;-72
2022/11/24 10:16:56;;;;;;;;;6.00;4.75;;;;;13.63;75.42;100960.34;4995004;28;45371;-70
2022/11/24 10:19:54;;;;;;;;;3.75;1.75;;;;;13.70;74.65;100950.94;4995038;28;45681;-71
2022/11/24 10:22:37;;;;;;;;;1.67;1.67;;;;;13.90;74.78;100954.91;4993699;28;45698;-70
2022/11/24 10:25:08;;;;;;;;;4.75;4.75;;;;;14.07;74.20;100947.50;4993693;28;45466;-70
2022/11/24 10:27:42;;;;;;;;;5.75;3.00;;;;;14.20;73.83;100931.34;4994527;28;45403;-70
2022/11/24 10:30:22;;;;;;;;;2.50;2.50;;;;;14.07;72.40;100888.47;4994647;28;45368;-70
2022/11/24 10:33:16;;;;;;;;;3.75;3.75;;;;;14.37;71.14;100928.31;4994494;28;45424;-70
2022/11/24 10:35:54;;;;;;;;;3.67;3.00;;;;;14.42;71.38;100944.94;4984854;28;45425;-70
2022/11/24 10:38:19;;;;;;;;;4.00;3.25;;;;;14.51;71.71;100937.19;4994089;28;45545;-70
2022/11/24 10:41:00;;;;;;;;;4.25;2.00;;;;;14.56;71.43;100922.50;4994407;28;45471;-70
2022/11/24 10:43:27;;;;;;;;;2.00;1.00;;;;;14.60;70.50;100926.66;4994423;28;45414;-71
2022/11/24 10:45:58;;;;;;;;;4.50;2.75;;;;;14.69;71.51;100927.84;4994563;28;45708;-71
2022/11/24 10:48:26;;;;;;;;;3.00;2.00;;;;;14.67;71.23;100916.38;4994296;28;45443;-71
2022/11/24 10:50:56;;;;;;;;;4.00;1.33;;;;;14.74;70.90;100917.63;4994549;28;45586;-70
2022/11/24 10:53:23;;;;;;;;;1.00;1.00;;;;;14.85;70.24;100926.72;4994309;28;45468;-71
2022/11/24 10:55:57;;;;;;;;;2.00;2.00;;;;;14.92;70.90;100920.75;4994237;28;46113;-70
2022/11/24 10:58:33;;;;;;;;;2.00;2.00;;;;;14.97;69.37;100926.63;4994110;28;45439;-69
2022/11/24 11:01:21;;;;;;;;;3.67;1.67;;;;;14.90;69.71;100921.81;4994205;28;45440;-73
2022/11/24 11:03:49;;;;;;;;;1.00;1.00;;;;;14.96;69.98;100922.22;4993658;28;45618;-70
2022/11/24 11:06:20;;;;;;;;;1.00;1.00;;;;;14.95;70.68;100909.78;4993614;28;45837;-70
2022/11/24 11:08:46;;;;;;;;;3.00;3.00;;;;;15.10;69.28;100890.78;4976258;28;45862;-70
2022/11/24 11:11:30;;;;;;;;;3.33;3.33;;;;;15.37;70.36;100908.44;4994226;28;45550;-72
2022/11/24 11:13:59;;;;;;;;;4.33;2.67;;;;;15.52;69.11;100907.28;4994267;28;45434;-68
2022/11/24 11:16:40;;;;;;;;;4.00;2.67;;;;;15.52;68.14;100893.84;4993633;28;46202;-69
2022/11/24 11:19:36;;;;;;;;;4.33;3.00;;;;;15.60;67.90;100893.22;4993688;28;45399;-68
2022/11/24 11:22:04;;;;;;;;;4.67;2.67;;;;;15.78;67.11;100897.16;4993979;28;45460;-69
2022/11/24 11:24:31;;;;;;;;;3.00;2.67;;;;;15.84;67.02;100885.09;4993478;28;46037;-68
2022/11/24 11:27:01;;;;;;;;;4.33;2.00;;;;;15.74;65.40;100847.28;4993860;28;45532;-69
2022/11/24 11:29:28;;;;;;;;;2.00;0.33;;;;;15.77;66.80;100852.41;4993621;28;45470;-69
2022/11/24 11:32:22;;;;;;;;;2.00;2.00;;;;;16.00;66.09;100868.59;4993542;28;45529;-68